sensor_id;sensor_type;location;lat;lon;timestamp;P1;durP1;ratioP1;P2;durP2;ratioP2
22254;SDS011;11296;42.684;23.322;2022-12-13T05:35:25;12.50;;;6.90;;
22254;SDS011;11296;42.684;23.322;2022-12-13T05:41:14;14.33;;;7.97;;
22254;SDS011;11296;42.684;23.322;2022-12-13T05:48:37;14.10;;;7.73;;
22254;SDS011;11296;42.684;23.322;2022-12-13T06:37:55;10.27;;;5.93;;
22254;SDS011;11296;42.684;23.322;2022-12-13T06:56:31;7.17;;;4.43;;
22254;SDS011;11296;42.684;23.322;2022-12-13T06:59:37;17.00;;;8.20;;
22254;SDS011;11296;42.684;23.322;2022-12-13T07:03:05;14.97;;;8.37;;
22254;SDS011;11296;42.684;23.322;2022-12-13T07:06:02;15.57;;;8.50;;
22254;SDS011;11296;42.684;23.322;2022-12-13T07:09:24;14.77;;;8.57;;
22254;SDS011;11296;42.684;23.322;2022-12-13T07:11:59;16.50;;;8.20;;
22254;SDS011;11296;42.684;23.322;2022-12-13T07:14:49;15.87;;;8.03;;
22254;SDS011;11296;42.684;23.322;2022-12-13T07:17:47;18.03;;;9.57;;
22254;SDS011;11296;42.684;23.322;2022-12-13T07:20:26;16.00;;;8.90;;
22254;SDS011;11296;42.684;23.322;2022-12-13T07:23:29;15.07;;;8.10;;
22254;SDS011;11296;42.684;23.322;2022-12-13T07:26:50;15.47;;;8.57;;
22254;SDS011;11296;42.684;23.322;2022-12-13T07:29:44;12.97;;;6.33;;
22254;SDS011;11296;42.684;23.322;2022-12-13T07:33:37;13.83;;;8.63;;
22254;SDS011;11296;42.684;23.322;2022-12-13T07:37:31;16.97;;;8.67;;
22254;SDS011;11296;42.684;23.322;2022-12-13T07:41:06;21.30;;;9.40;;
22254;SDS011;11296;42.684;23.322;2022-12-13T07:44:39;14.90;;;9.07;;
22254;SDS011;11296;42.684;23.322;2022-12-13T07:47:07;13.40;;;7.80;;
22254;SDS011;11296;42.684;23.322;2022-12-13T07:49:36;26.07;;;12.67;;
22254;SDS011;11296;42.684;23.322;2022-12-13T07:52:20;10.80;;;6.07;;
22254;SDS011;11296;42.684;23.322;2022-12-13T07:56:03;13.90;;;7.83;;
22254;SDS011;11296;42.684;23.322;2022-12-13T07:58:41;13.47;;;8.00;;
22254;SDS011;11296;42.684;23.322;2022-12-13T08:01:20;16.10;;;8.73;;
22254;SDS011;11296;42.684;23.322;2022-12-13T08:19:35;18.77;;;9.10;;
22254;SDS011;11296;42.684;23.322;2022-12-13T08:22:03;19.23;;;10.13;;
22254;SDS011;11296;42.684;23.322;2022-12-13T08:25:19;14.00;;;8.20;;
22254;SDS011;11296;42.684;23.322;2022-12-13T08:28:54;17.47;;;10.03;;
22254;SDS011;11296;42.684;23.322;2022-12-13T08:31:55;16.37;;;9.13;;
22254;SDS011;11296;42.684;23.322;2022-12-13T08:35:28;17.50;;;9.07;;
22254;SDS011;11296;42.684;23.322;2022-12-13T08:38:59;14.37;;;8.20;;
22254;SDS011;11296;42.684;23.322;2022-12-13T08:45:41;16.97;;;9.70;;
22254;SDS011;11296;42.684;23.322;2022-12-13T08:48:44;16.50;;;8.90;;
22254;SDS011;11296;42.684;23.322;2022-12-13T08:51:13;15.67;;;9.00;;
22254;SDS011;11296;42.684;23.322;2022-12-13T08:54:09;23.90;;;9.27;;
22254;SDS011;11296;42.684;23.322;2022-12-13T08:56:35;21.83;;;8.67;;
22254;SDS011;11296;42.684;23.322;2022-12-13T08:59:02;19.50;;;7.67;;
22254;SDS011;11296;42.684;23.322;2022-12-13T09:01:31;19.00;;;7.70;;
22254;SDS011;11296;42.684;23.322;2022-12-13T09:04:05;13.10;;;7.80;;
22254;SDS011;11296;42.684;23.322;2022-12-13T09:13:46;24.30;;;10.33;;
22254;SDS011;11296;42.684;23.322;2022-12-13T09:16:35;19.20;;;8.33;;
22254;SDS011;11296;42.684;23.322;2022-12-13T09:19:02;16.17;;;9.63;;
22254;SDS011;11296;42.684;23.322;2022-12-13T09:21:39;10.67;;;7.07;;
22254;SDS011;11296;42.684;23.322;2022-12-13T09:24:08;13.30;;;8.73;;
22254;SDS011;11296;42.684;23.322;2022-12-13T09:26:34;15.43;;;9.70;;
22254;SDS011;11296;42.684;23.322;2022-12-13T09:29:02;17.40;;;9.93;;
22254;SDS011;11296;42.684;23.322;2022-12-13T09:31:30;10.70;;;7.30;;
22254;SDS011;11296;42.684;23.322;2022-12-13T09:34:09;13.73;;;8.30;;
22254;SDS011;11296;42.684;23.322;2022-12-13T09:36:35;11.60;;;8.03;;
22254;SDS011;11296;42.684;23.322;2022-12-13T09:39:03;14.63;;;8.63;;
22254;SDS011;11296;42.684;23.322;2022-12-13T09:44:06;13.40;;;7.80;;
22254;SDS011;11296;42.684;23.322;2022-12-13T09:46:41;13.40;;;8.47;;
22254;SDS011;11296;42.684;23.322;2022-12-13T09:52:02;11.43;;;6.37;;
22254;SDS011;11296;42.684;23.322;2022-12-13T09:54:34;6.70;;;5.27;;
22254;SDS011;11296;42.684;23.322;2022-12-13T09:57:00;8.50;;;5.70;;
22254;SDS011;11296;42.684;23.322;2022-12-13T09:59:36;7.50;;;5.30;;
22254;SDS011;11296;42.684;23.322;2022-12-13T10:18:55;8.83;;;6.20;;
22254;SDS011;11296;42.684;23.322;2022-12-13T10:27:09;9.97;;;6.97;;
22254;SDS011;11296;42.684;23.322;2022-12-13T10:30:24;9.37;;;6.53;;
22254;SDS011;11296;42.684;23.322;2022-12-13T10:32:59;10.27;;;7.13;;
22254;SDS011;11296;42.684;23.322;2022-12-13T10:35:33;10.90;;;7.60;;
22254;SDS011;11296;42.684;23.322;2022-12-13T10:40:41;12.10;;;7.87;;
22254;SDS011;11296;42.684;23.322;2022-12-13T10:43:18;13.27;;;7.63;;
22254;SDS011;11296;42.684;23.322;2022-12-13T10:48:30;12.00;;;6.63;;
22254;SDS011;11296;42.684;23.322;2022-12-13T10:51:19;9.47;;;6.53;;
22254;SDS011;11296;42.684;23.322;2022-12-13T10:53:56;10.87;;;6.97;;
22254;SDS011;11296;42.684;23.322;2022-12-13T10:56:45;10.60;;;7.40;;
22254;SDS011;11296;42.684;23.322;2022-12-13T10:59:30;13.20;;;8.57;;
22254;SDS011;11296;42.684;23.322;2022-12-13T11:01:56;13.20;;;7.97;;
22254;SDS011;11296;42.684;23.322;2022-12-13T11:08:02;11.10;;;7.87;;
22254;SDS011;11296;42.684;23.322;2022-12-13T11:11:25;10.57;;;7.60;;
22254;SDS011;11296;42.684;23.322;2022-12-13T11:14:27;12.37;;;8.53;;
22254;SDS011;11296;42.684;23.322;2022-12-13T11:18:33;10.43;;;7.27;;
22254;SDS011;11296;42.684;23.322;2022-12-13T11:21:08;12.90;;;8.70;;
22254;SDS011;11296;42.684;23.322;2022-12-13T11:23:44;13.57;;;9.07;;
22254;SDS011;11296;42.684;23.322;2022-12-13T11:26:16;9.63;;;7.40;;
22254;SDS011;11296;42.684;23.322;2022-12-13T11:41:18;6.80;;;5.27;;
22254;SDS011;11296;42.684;23.322;2022-12-13T11:43:46;8.43;;;6.50;;
22254;SDS011;11296;42.684;23.322;2022-12-13T11:46:19;9.73;;;7.13;;
22254;SDS011;11296;42.684;23.322;2022-12-13T11:48:57;8.97;;;7.27;;
22254;SDS011;11296;42.684;23.322;2022-12-13T11:51:33;10.90;;;6.80;;
22254;SDS011;11296;42.684;23.322;2022-12-13T11:54:34;7.33;;;5.73;;
22254;SDS011;11296;42.684;23.322;2022-12-13T12:00:26;7.13;;;5.67;;
22254;SDS011;11296;42.684;23.322;2022-12-13T12:02:58;9.80;;;6.13;;
22254;SDS011;11296;42.684;23.322;2022-12-13T12:05:52;7.37;;;5.97;;
22254;SDS011;11296;42.684;23.322;2022-12-13T12:14:28;9.47;;;5.97;;
22254;SDS011;11296;42.684;23.322;2022-12-13T12:17:17;7.87;;;6.20;;
22254;SDS011;11296;42.684;23.322;2022-12-13T12:19:48;8.43;;;6.67;;
22254;SDS011;11296;42.684;23.322;2022-12-13T12:28:14;11.20;;;7.33;;
22254;SDS011;11296;42.684;23.322;2022-12-13T12:39:41;15.83;;;9.27;;
22254;SDS011;11296;42.684;23.322;2022-12-13T12:42:38;17.27;;;9.17;;
22254;SDS011;11296;42.684;23.322;2022-12-13T12:47:55;17.20;;;9.93;;
22254;SDS011;11296;42.684;23.322;2022-12-13T12:50:38;17.63;;;9.03;;
22254;SDS011;11296;42.684;23.322;2022-12-13T13:03:25;9.57;;;6.70;;
22254;SDS011;11296;42.684;23.322;2022-12-13T13:06:01;8.80;;;5.73;;
22254;SDS011;11296;42.684;23.322;2022-12-13T13:08:42;10.07;;;5.60;;
22254;SDS011;11296;42.684;23.322;2022-12-13T13:11:23;10.53;;;6.13;;
22254;SDS011;11296;42.684;23.322;2022-12-13T13:14:07;10.47;;;6.57;;
22254;SDS011;11296;42.684;23.322;2022-12-13T13:16:55;9.67;;;6.63;;
22254;SDS011;11296;42.684;23.322;2022-12-13T13:21:57;9.43;;;6.60;;
22254;SDS011;11296;42.684;23.322;2022-12-13T13:26:52;10.03;;;6.50;;
22254;SDS011;11296;42.684;23.322;2022-12-13T13:34:27;11.27;;;7.43;;
22254;SDS011;11296;42.684;23.322;2022-12-13T13:37:02;13.70;;;8.10;;
22254;SDS011;11296;42.684;23.322;2022-12-13T13:45:54;14.73;;;8.77;;
22254;SDS011;11296;42.684;23.322;2022-12-13T13:48:58;13.90;;;8.47;;
22254;SDS011;11296;42.684;23.322;2022-12-13T14:09:58;8.37;;;5.53;;
22254;SDS011;11296;42.684;23.322;2022-12-13T14:12:54;14.70;;;6.30;;
22254;SDS011;11296;42.684;23.322;2022-12-13T14:15:37;10.30;;;5.97;;
22254;SDS011;11296;42.684;23.322;2022-12-13T14:21:22;9.20;;;5.63;;
22254;SDS011;11296;42.684;23.322;2022-12-13T14:29:39;12.87;;;7.23;;
22254;SDS011;11296;42.684;23.322;2022-12-13T14:34:55;10.57;;;6.73;;
22254;SDS011;11296;42.684;23.322;2022-12-13T14:37:28;16.53;;;9.70;;
22254;SDS011;11296;42.684;23.322;2022-12-13T14:39:56;18.03;;;9.83;;
22254;SDS011;11296;42.684;23.322;2022-12-13T14:42:32;18.03;;;10.80;;
22254;SDS011;11296;42.684;23.322;2022-12-13T14:45:14;20.20;;;11.97;;
22254;SDS011;11296;42.684;23.322;2022-12-13T14:47:47;22.27;;;12.97;;
22254;SDS011;11296;42.684;23.322;2022-12-13T14:50:16;19.83;;;11.83;;
22254;SDS011;11296;42.684;23.322;2022-12-13T14:52:45;18.73;;;11.07;;
22254;SDS011;11296;42.684;23.322;2022-12-13T14:55:47;21.83;;;12.13;;
22254;SDS011;11296;42.684;23.322;2022-12-13T14:58:16;18.00;;;11.17;;
22254;SDS011;11296;42.684;23.322;2022-12-13T15:01:25;20.43;;;11.37;;
22254;SDS011;11296;42.684;23.322;2022-12-13T15:04:31;22.37;;;11.63;;
22254;SDS011;11296;42.684;23.322;2022-12-13T15:10:19;44.80;;;23.77;;
22254;SDS011;11296;42.684;23.322;2022-12-13T15:13:17;23.10;;;11.93;;
22254;SDS011;11296;42.684;23.322;2022-12-13T15:15:50;25.57;;;14.17;;
22254;SDS011;11296;42.684;23.322;2022-12-13T15:18:27;26.67;;;14.97;;
22254;SDS011;11296;42.684;23.322;2022-12-13T15:20:58;25.27;;;15.60;;
22254;SDS011;11296;42.684;23.322;2022-12-13T15:23:33;28.50;;;15.53;;
22254;SDS011;11296;42.684;23.322;2022-12-13T15:26:15;31.53;;;17.30;;
22254;SDS011;11296;42.684;23.322;2022-12-13T15:28:45;28.37;;;15.63;;
22254;SDS011;11296;42.684;23.322;2022-12-13T15:31:17;29.27;;;16.67;;
22254;SDS011;11296;42.684;23.322;2022-12-13T15:33:49;29.33;;;16.20;;
22254;SDS011;11296;42.684;23.322;2022-12-13T15:41:33;31.87;;;18.27;;
22254;SDS011;11296;42.684;23.322;2022-12-13T15:47:05;32.57;;;18.17;;
22254;SDS011;11296;42.684;23.322;2022-12-13T15:49:36;32.17;;;17.23;;
22254;SDS011;11296;42.684;23.322;2022-12-13T15:52:21;28.83;;;15.80;;
22254;SDS011;11296;42.684;23.322;2022-12-13T15:55:20;30.00;;;17.33;;
22254;SDS011;11296;42.684;23.322;2022-12-13T15:57:49;30.40;;;17.77;;
22254;SDS011;11296;42.684;23.322;2022-12-13T16:02:55;32.50;;;16.87;;
22254;SDS011;11296;42.684;23.322;2022-12-13T16:05:30;31.77;;;16.90;;
22254;SDS011;11296;42.684;23.322;2022-12-13T16:10:53;31.27;;;17.33;;
22254;SDS011;11296;42.684;23.322;2022-12-13T16:13:27;30.03;;;17.17;;
22254;SDS011;11296;42.684;23.322;2022-12-13T16:15:55;30.20;;;17.03;;
22254;SDS011;11296;42.684;23.322;2022-12-13T16:18:32;33.40;;;19.13;;
22254;SDS011;11296;42.684;23.322;2022-12-13T16:21:07;33.07;;;19.00;;
22254;SDS011;11296;42.684;23.322;2022-12-13T16:23:35;33.60;;;19.53;;
22254;SDS011;11296;42.684;23.322;2022-12-13T16:26:01;34.20;;;20.03;;
22254;SDS011;11296;42.684;23.322;2022-12-13T16:28:26;35.20;;;20.33;;
22254;SDS011;11296;42.684;23.322;2022-12-13T16:33:36;36.83;;;18.60;;
22254;SDS011;11296;42.684;23.322;2022-12-13T16:36:02;33.80;;;19.00;;
22254;SDS011;11296;42.684;23.322;2022-12-13T16:38:28;36.57;;;19.83;;
22254;SDS011;11296;42.684;23.322;2022-12-13T16:40:54;33.40;;;19.00;;
22254;SDS011;11296;42.684;23.322;2022-12-13T16:43:24;31.70;;;18.73;;
22254;SDS011;11296;42.684;23.322;2022-12-13T16:45:51;32.73;;;18.80;;
22254;SDS011;11296;42.684;23.322;2022-12-13T16:48:19;28.70;;;17.63;;
22254;SDS011;11296;42.684;23.322;2022-12-13T16:50:49;29.50;;;17.97;;
22254;SDS011;11296;42.684;23.322;2022-12-13T16:53:16;37.43;;;20.30;;
22254;SDS011;11296;42.684;23.322;2022-12-13T16:55:45;31.73;;;18.67;;
22254;SDS011;11296;42.684;23.322;2022-12-13T17:01:16;32.70;;;17.47;;
22254;SDS011;11296;42.684;23.322;2022-12-13T17:03:48;30.73;;;16.97;;
22254;SDS011;11296;42.684;23.322;2022-12-13T17:06:22;36.97;;;21.27;;
22254;SDS011;11296;42.684;23.322;2022-12-13T17:08:51;42.93;;;21.63;;
22254;SDS011;11296;42.684;23.322;2022-12-13T17:11:17;36.37;;;21.60;;
22254;SDS011;11296;42.684;23.322;2022-12-13T17:13:42;42.13;;;23.30;;
22254;SDS011;11296;42.684;23.322;2022-12-13T17:16:11;47.27;;;28.07;;
22254;SDS011;11296;42.684;23.322;2022-12-13T17:18:38;54.40;;;29.67;;
22254;SDS011;11296;42.684;23.322;2022-12-13T17:21:07;50.90;;;29.07;;
22254;SDS011;11296;42.684;23.322;2022-12-13T17:24:00;52.23;;;29.67;;
22254;SDS011;11296;42.684;23.322;2022-12-13T17:26:29;57.90;;;30.57;;
22254;SDS011;11296;42.684;23.322;2022-12-13T17:29:00;58.00;;;31.50;;
22254;SDS011;11296;42.684;23.322;2022-12-13T17:31:32;55.57;;;30.67;;
22254;SDS011;11296;42.684;23.322;2022-12-13T17:34:09;57.13;;;31.00;;
22254;SDS011;11296;42.684;23.322;2022-12-13T17:36:38;54.47;;;29.93;;
22254;SDS011;11296;42.684;23.322;2022-12-13T17:39:03;52.77;;;28.27;;
22254;SDS011;11296;42.684;23.322;2022-12-13T17:41:29;51.73;;;29.17;;
22254;SDS011;11296;42.684;23.322;2022-12-13T17:43:58;62.70;;;32.43;;
22254;SDS011;11296;42.684;23.322;2022-12-13T17:46:24;42.93;;;22.97;;
22254;SDS011;11296;42.684;23.322;2022-12-13T17:48:53;47.00;;;23.17;;
22254;SDS011;11296;42.684;23.322;2022-12-13T17:51:19;41.57;;;23.37;;
22254;SDS011;11296;42.684;23.322;2022-12-13T17:53:45;42.50;;;22.77;;
22254;SDS011;11296;42.684;23.322;2022-12-13T17:56:13;40.93;;;22.40;;
22254;SDS011;11296;42.684;23.322;2022-12-13T17:58:42;40.33;;;22.20;;
22254;SDS011;11296;42.684;23.322;2022-12-13T18:01:18;39.97;;;22.90;;
22254;SDS011;11296;42.684;23.322;2022-12-13T18:03:50;40.90;;;21.90;;
22254;SDS011;11296;42.684;23.322;2022-12-13T18:06:20;39.07;;;21.47;;
22254;SDS011;11296;42.684;23.322;2022-12-13T18:08:52;37.03;;;21.03;;
22254;SDS011;11296;42.684;23.322;2022-12-13T18:11:18;40.93;;;22.17;;
22254;SDS011;11296;42.684;23.322;2022-12-13T18:13:56;39.13;;;22.23;;
22254;SDS011;11296;42.684;23.322;2022-12-13T18:16:24;37.40;;;20.83;;
22254;SDS011;11296;42.684;23.322;2022-12-13T18:18:54;35.80;;;20.03;;
22254;SDS011;11296;42.684;23.322;2022-12-13T18:21:24;38.10;;;20.90;;
22254;SDS011;11296;42.684;23.322;2022-12-13T18:23:51;41.27;;;21.73;;
22254;SDS011;11296;42.684;23.322;2022-12-13T18:26:17;35.67;;;20.23;;
22254;SDS011;11296;42.684;23.322;2022-12-13T18:28:43;37.50;;;21.27;;
22254;SDS011;11296;42.684;23.322;2022-12-13T18:31:14;58.80;;;29.63;;
22254;SDS011;11296;42.684;23.322;2022-12-13T18:33:48;51.57;;;26.43;;
22254;SDS011;11296;42.684;23.322;2022-12-13T18:36:15;39.90;;;19.90;;
22254;SDS011;11296;42.684;23.322;2022-12-13T18:38:42;36.67;;;20.43;;
22254;SDS011;11296;42.684;23.322;2022-12-13T18:41:12;32.43;;;18.87;;
22254;SDS011;11296;42.684;23.322;2022-12-13T18:43:44;35.87;;;19.00;;
22254;SDS011;11296;42.684;23.322;2022-12-13T18:46:18;34.50;;;19.07;;
22254;SDS011;11296;42.684;23.322;2022-12-13T18:48:44;33.50;;;19.23;;
22254;SDS011;11296;42.684;23.322;2022-12-13T18:51:13;32.47;;;18.27;;
22254;SDS011;11296;42.684;23.322;2022-12-13T18:53:38;35.23;;;18.50;;
22254;SDS011;11296;42.684;23.322;2022-12-13T18:56:11;34.60;;;17.87;;
22254;SDS011;11296;42.684;23.322;2022-12-13T18:58:39;33.00;;;17.90;;
22254;SDS011;11296;42.684;23.322;2022-12-13T19:01:05;30.37;;;16.83;;
22254;SDS011;11296;42.684;23.322;2022-12-13T19:03:33;33.77;;;18.00;;
22254;SDS011;11296;42.684;23.322;2022-12-13T19:06:01;30.77;;;16.97;;
22254;SDS011;11296;42.684;23.322;2022-12-13T19:08:28;33.77;;;18.07;;
22254;SDS011;11296;42.684;23.322;2022-12-13T19:10:55;33.50;;;18.67;;
22254;SDS011;11296;42.684;23.322;2022-12-13T19:13:25;34.70;;;18.97;;
22254;SDS011;11296;42.684;23.322;2022-12-13T19:15:54;31.93;;;18.50;;
22254;SDS011;11296;42.684;23.322;2022-12-13T19:18:21;32.63;;;18.47;;
22254;SDS011;11296;42.684;23.322;2022-12-13T19:20:47;34.57;;;19.10;;
22254;SDS011;11296;42.684;23.322;2022-12-13T19:23:18;31.23;;;18.30;;
22254;SDS011;11296;42.684;23.322;2022-12-13T19:25:47;33.27;;;18.97;;
22254;SDS011;11296;42.684;23.322;2022-12-13T19:28:13;34.00;;;18.27;;
22254;SDS011;11296;42.684;23.322;2022-12-13T19:30:47;31.80;;;17.43;;
22254;SDS011;11296;42.684;23.322;2022-12-13T19:33:15;31.57;;;18.47;;
22254;SDS011;11296;42.684;23.322;2022-12-13T19:35:41;34.07;;;18.17;;
22254;SDS011;11296;42.684;23.322;2022-12-13T19:38:07;36.07;;;18.87;;
22254;SDS011;11296;42.684;23.322;2022-12-13T19:40:36;30.50;;;17.80;;
22254;SDS011;11296;42.684;23.322;2022-12-13T19:43:03;35.23;;;18.77;;
22254;SDS011;11296;42.684;23.322;2022-12-13T19:45:28;29.67;;;16.50;;
22254;SDS011;11296;42.684;23.322;2022-12-13T19:47:54;94.47;;;45.07;;
22254;SDS011;11296;42.684;23.322;2022-12-13T19:50:20;37.33;;;18.40;;
22254;SDS011;11296;42.684;23.322;2022-12-13T19:52:46;30.80;;;16.57;;
22254;SDS011;11296;42.684;23.322;2022-12-13T19:55:14;31.07;;;17.77;;
22254;SDS011;11296;42.684;23.322;2022-12-13T19:57:43;27.43;;;15.97;;
22254;SDS011;11296;42.684;23.322;2022-12-13T20:00:09;30.40;;;16.63;;
22254;SDS011;11296;42.684;23.322;2022-12-13T20:02:46;30.57;;;16.37;;
22254;SDS011;11296;42.684;23.322;2022-12-13T20:05:24;25.97;;;15.27;;
22254;SDS011;11296;42.684;23.322;2022-12-13T20:07:50;31.40;;;16.93;;
22254;SDS011;11296;42.684;23.322;2022-12-13T20:10:26;28.10;;;15.47;;
22254;SDS011;11296;42.684;23.322;2022-12-13T20:12:55;32.53;;;16.17;;
22254;SDS011;11296;42.684;23.322;2022-12-13T20:15:20;30.37;;;15.97;;
22254;SDS011;11296;42.684;23.322;2022-12-13T20:17:46;30.20;;;16.27;;
22254;SDS011;11296;42.684;23.322;2022-12-13T20:20:14;32.73;;;15.77;;
22254;SDS011;11296;42.684;23.322;2022-12-13T20:22:50;31.43;;;14.43;;
22254;SDS011;11296;42.684;23.322;2022-12-13T20:25:21;21.87;;;13.50;;
22254;SDS011;11296;42.684;23.322;2022-12-13T20:27:49;28.07;;;15.30;;
22254;SDS011;11296;42.684;23.322;2022-12-13T20:30:15;28.07;;;15.37;;
22254;SDS011;11296;42.684;23.322;2022-12-13T20:32:41;27.93;;;14.50;;
22254;SDS011;11296;42.684;23.322;2022-12-13T20:35:16;28.53;;;15.30;;
22254;SDS011;11296;42.684;23.322;2022-12-13T20:37:42;23.73;;;13.57;;
22254;SDS011;11296;42.684;23.322;2022-12-13T20:40:08;23.10;;;13.83;;
22254;SDS011;11296;42.684;23.322;2022-12-13T20:42:34;24.80;;;15.00;;
22254;SDS011;11296;42.684;23.322;2022-12-13T20:45:09;33.07;;;15.33;;
22254;SDS011;11296;42.684;23.322;2022-12-13T20:47:35;34.87;;;16.90;;
22254;SDS011;11296;42.684;23.322;2022-12-13T20:50:22;27.30;;;14.83;;
22254;SDS011;11296;42.684;23.322;2022-12-13T20:53:02;26.17;;;15.40;;
22254;SDS011;11296;42.684;23.322;2022-12-13T20:55:32;25.60;;;14.03;;
22254;SDS011;11296;42.684;23.322;2022-12-13T20:58:02;26.93;;;15.53;;
22254;SDS011;11296;42.684;23.322;2022-12-13T21:00:33;25.73;;;15.03;;
22254;SDS011;11296;42.684;23.322;2022-12-13T21:02:59;28.37;;;16.17;;
22254;SDS011;11296;42.684;23.322;2022-12-13T21:05:26;28.97;;;15.67;;
22254;SDS011;11296;42.684;23.322;2022-12-13T21:07:57;25.70;;;15.23;;
22254;SDS011;11296;42.684;23.322;2022-12-13T21:10:42;27.53;;;15.10;;
22254;SDS011;11296;42.684;23.322;2022-12-13T21:13:10;30.03;;;15.33;;
22254;SDS011;11296;42.684;23.322;2022-12-13T21:15:36;34.10;;;15.67;;
22254;SDS011;11296;42.684;23.322;2022-12-13T21:18:02;28.70;;;14.97;;
22254;SDS011;11296;42.684;23.322;2022-12-13T21:20:28;25.73;;;14.77;;
22254;SDS011;11296;42.684;23.322;2022-12-13T21:22:56;28.07;;;15.03;;
22254;SDS011;11296;42.684;23.322;2022-12-13T21:25:22;31.37;;;15.73;;
22254;SDS011;11296;42.684;23.322;2022-12-13T21:27:47;29.37;;;15.30;;
22254;SDS011;11296;42.684;23.322;2022-12-13T21:30:13;28.87;;;16.17;;
22254;SDS011;11296;42.684;23.322;2022-12-13T21:32:42;36.60;;;19.07;;
22254;SDS011;11296;42.684;23.322;2022-12-13T21:35:10;32.30;;;17.20;;
22254;SDS011;11296;42.684;23.322;2022-12-13T21:37:37;34.87;;;16.67;;
22254;SDS011;11296;42.684;23.322;2022-12-13T21:40:03;33.10;;;15.67;;
22254;SDS011;11296;42.684;23.322;2022-12-13T21:42:30;29.83;;;16.10;;
22254;SDS011;11296;42.684;23.322;2022-12-13T21:44:58;27.10;;;15.53;;
22254;SDS011;11296;42.684;23.322;2022-12-13T21:47:24;30.90;;;15.43;;
22254;SDS011;11296;42.684;23.322;2022-12-13T21:49:52;25.53;;;13.67;;
22254;SDS011;11296;42.684;23.322;2022-12-13T21:52:18;29.10;;;15.73;;
22254;SDS011;11296;42.684;23.322;2022-12-13T21:54:44;28.83;;;15.27;;
22254;SDS011;11296;42.684;23.322;2022-12-13T21:57:10;27.10;;;14.37;;
22254;SDS011;11296;42.684;23.322;2022-12-13T21:59:54;31.80;;;14.70;;
22254;SDS011;11296;42.684;23.322;2022-12-13T22:02:21;31.40;;;13.97;;
22254;SDS011;11296;42.684;23.322;2022-12-13T22:04:50;27.33;;;15.13;;
22254;SDS011;11296;42.684;23.322;2022-12-13T22:07:22;30.73;;;15.27;;
22254;SDS011;11296;42.684;23.322;2022-12-13T22:09:53;24.63;;;13.50;;
22254;SDS011;11296;42.684;23.322;2022-12-13T22:12:38;27.20;;;14.03;;
22254;SDS011;11296;42.684;23.322;2022-12-13T22:15:12;26.00;;;13.13;;
22254;SDS011;11296;42.684;23.322;2022-12-13T22:17:39;25.80;;;13.57;;
22254;SDS011;11296;42.684;23.322;2022-12-13T22:20:07;22.90;;;13.20;;
22254;SDS011;11296;42.684;23.322;2022-12-13T22:22:38;22.50;;;13.67;;
22254;SDS011;11296;42.684;23.322;2022-12-13T22:25:05;30.10;;;14.43;;
22254;SDS011;11296;42.684;23.322;2022-12-13T22:27:33;27.97;;;14.73;;
22254;SDS011;11296;42.684;23.322;2022-12-13T22:29:59;26.43;;;14.40;;
22254;SDS011;11296;42.684;23.322;2022-12-13T22:32:26;29.70;;;15.30;;
22254;SDS011;11296;42.684;23.322;2022-12-13T22:34:53;26.53;;;15.00;;
22254;SDS011;11296;42.684;23.322;2022-12-13T22:37:19;28.90;;;15.80;;
22254;SDS011;11296;42.684;23.322;2022-12-13T22:39:45;28.70;;;15.47;;
22254;SDS011;11296;42.684;23.322;2022-12-13T22:42:11;29.13;;;15.13;;
22254;SDS011;11296;42.684;23.322;2022-12-13T22:44:36;27.10;;;15.17;;
22254;SDS011;11296;42.684;23.322;2022-12-13T22:47:02;28.30;;;15.57;;
22254;SDS011;11296;42.684;23.322;2022-12-13T22:49:28;25.73;;;15.20;;
22254;SDS011;11296;42.684;23.322;2022-12-13T22:51:54;27.80;;;15.80;;
22254;SDS011;11296;42.684;23.322;2022-12-13T22:54:20;30.83;;;16.80;;
22254;SDS011;11296;42.684;23.322;2022-12-13T22:56:49;29.33;;;15.13;;
22254;SDS011;11296;42.684;23.322;2022-12-13T22:59:18;27.30;;;16.03;;
22254;SDS011;11296;42.684;23.322;2022-12-13T23:01:48;26.83;;;15.23;;
22254;SDS011;11296;42.684;23.322;2022-12-13T23:04:14;24.97;;;15.03;;
22254;SDS011;11296;42.684;23.322;2022-12-13T23:06:40;27.10;;;15.20;;
22254;SDS011;11296;42.684;23.322;2022-12-13T23:09:08;26.60;;;14.73;;
22254;SDS011;11296;42.684;23.322;2022-12-13T23:11:40;28.33;;;15.40;;
22254;SDS011;11296;42.684;23.322;2022-12-13T23:14:25;27.80;;;15.50;;
22254;SDS011;11296;42.684;23.322;2022-12-13T23:16:53;28.93;;;15.50;;
22254;SDS011;11296;42.684;23.322;2022-12-13T23:19:19;28.37;;;16.13;;
22254;SDS011;11296;42.684;23.322;2022-12-13T23:21:45;26.20;;;15.00;;
22254;SDS011;11296;42.684;23.322;2022-12-13T23:24:11;29.63;;;16.17;;
22254;SDS011;11296;42.684;23.322;2022-12-13T23:26:38;26.77;;;15.70;;
22254;SDS011;11296;42.684;23.322;2022-12-13T23:29:07;25.83;;;15.10;;
22254;SDS011;11296;42.684;23.322;2022-12-13T23:31:36;28.37;;;15.60;;
22254;SDS011;11296;42.684;23.322;2022-12-13T23:34:04;26.87;;;15.43;;
22254;SDS011;11296;42.684;23.322;2022-12-13T23:36:30;27.57;;;15.73;;
22254;SDS011;11296;42.684;23.322;2022-12-13T23:38:59;28.27;;;15.97;;
22254;SDS011;11296;42.684;23.322;2022-12-13T23:41:27;24.93;;;14.83;;
22254;SDS011;11296;42.684;23.322;2022-12-13T23:43:57;30.30;;;17.00;;
22254;SDS011;11296;42.684;23.322;2022-12-13T23:46:25;31.17;;;18.53;;
22254;SDS011;11296;42.684;23.322;2022-12-13T23:48:56;36.40;;;21.33;;
22254;SDS011;11296;42.684;23.322;2022-12-13T23:51:23;46.83;;;25.97;;
22254;SDS011;11296;42.684;23.322;2022-12-13T23:53:50;38.83;;;22.07;;
22254;SDS011;11296;42.684;23.322;2022-12-13T23:56:16;49.27;;;26.77;;
22254;SDS011;11296;42.684;23.322;2022-12-13T23:58:42;41.90;;;22.90;;
